Time;durP1;ratioP1;P1;durP2;ratioP2;P2;SDS_P1;SDS_P2;PMS_P1;PMS_P2;Temp;Humidity;BMP_temperature;BMP_pressure;BME280_temperature;BME280_humidity;BME280_pressure;Samples;Min_cycle;Max_cycle;Signal;HPM_P1;HPM_P2
2023/04/24 00:01:36;;;;;;;;;;;;;;;;;;4990150;28;20011;-66
2023/04/24 00:04:03;;;;;;;;;;;;;;;;;;4992384;28;19925;-67
2023/04/24 00:06:32;;;;;;;;;;;;;;;;;;4988122;28;19967;-67
2023/04/24 00:08:58;;;;;;;;;;;;;;;;;;5007931;28;20402;-66
2023/04/24 00:11:23;;;;;;;;;;;;;;;;;;4998840;28;20003;-68
2023/04/24 00:13:48;;;;;;;;;;;;;;;;;;4976665;28;19996;-67
2023/04/24 00:16:14;;;;;;;;;;;;;;;;;;4979087;28;19917;-67
2023/04/24 00:18:41;;;;;;;;;;;;;;;;;;4976177;28;20299;-67
2023/04/24 00:21:07;;;;;;;;;;;;;;;;;;4977478;28;19960;-68
2023/04/24 00:23:32;;;;;;;;;;;;;;;;;;4986937;28;19921;-69
2023/04/24 00:25:57;;;;;;;;;;;;;;;;;;4970680;28;20000;-66
2023/04/24 00:28:23;;;;;;;;;;;;;;;;;;4993546;28;19939;-67
2023/04/24 00:30:51;;;;;;;;;;;;;;;;;;4986454;28;20388;-67
2023/04/24 00:33:16;;;;;;;;;;;;;;;;;;4971117;28;19917;-67
2023/04/24 00:35:44;;;;;;;;;;;;;;;;;;4975667;28;19927;-68
2023/04/24 00:38:09;;;;;;;;;;;;;;;;;;4988949;28;19921;-68
2023/04/24 00:40:35;;;;;;;;;;;;;;;;;;5008765;28;19987;-68
2023/04/24 00:43:00;;;;;;;;;;;;;;;;;;4986292;28;19950;-67
2023/04/24 00:45:25;;;;;;;;;;;;;;;;;;4990869;28;19928;-68
2023/04/24 00:47:53;;;;;;;;;;;;;;;;;;4998477;28;19917;-68
2023/04/24 00:50:21;;;;;;;;;;;;;;;;;;4978552;28;20379;-67
2023/04/24 00:52:46;;;;;;;;;;;;;;;;;;4972488;28;20107;-67
2023/04/24 00:55:12;;;;;;;;;;;;;;;;;;4974849;28;19976;-68
2023/04/24 00:57:37;;;;;;;;;;;;;;;;;;4975710;28;19928;-69
2023/04/24 01:00:03;;;;;;;;;;;;;;;;;;4976480;28;19924;-69
2023/04/24 01:02:31;;;;;;;;;;;;;;;;;;4988499;28;19921;-68
2023/04/24 01:04:56;;;;;;;;;;;;;;;;;;4989633;28;20568;-68
2023/04/24 01:07:21;;;;;;;;;;;;;;;;;;4973973;28;19923;-68
2023/04/24 01:09:48;;;;;;;;;;;;;;;;;;4989734;28;20008;-68
2023/04/24 01:12:16;;;;;;;;;;;;;;;;;;4986716;28;20280;-68
2023/04/24 01:14:41;;;;;;;;;;;;;;;;;;4972062;28;20506;-67
2023/04/24 01:17:07;;;;;;;;;;;;;;;;;;4988265;28;19972;-67
2023/04/24 01:19:34;;;;;;;;;;;;;;;;;;4989188;28;19921;-68
2023/04/24 01:22:02;;;;;;;;;;;;;;;;;;4989596;28;19918;-68
2023/04/24 01:24:27;;;;;;;;;;;;;;;;;;4989398;28;19922;-68
2023/04/24 01:26:55;;;;;;;;;;;;;;;;;;4984520;28;19921;-67
2023/04/24 01:29:20;;;;;;;;;;;;;;;;;;4988816;28;19921;-67
2023/04/24 01:31:51;;;;;;;;;;;;;;;;;;4985148;28;19928;-67
2023/04/24 01:34:16;;;;;;;;;;;;;;;;;;4986922;28;19929;-67
2023/04/24 01:36:42;;;;;;;;;;;;;;;;;;4990082;28;19921;-67
2023/04/24 01:39:07;;;;;;;;;;;;;;;;;;4990268;28;19924;-67
2023/04/24 01:41:32;;;;;;;;;;;;;;;;;;4972834;28;19969;-66
2023/04/24 01:43:58;;;;;;;;;;;;;;;;;;4988060;28;19987;-67
2023/04/24 01:46:26;;;;;;;;;;;;;;;;;;4987515;28;20232;-66
2023/04/24 01:48:51;;;;;;;;;;;;;;;;;;4990657;28;19925;-66
2023/04/24 01:51:16;;;;;;;;;;;;;;;;;;4987868;28;20487;-66
2023/04/24 01:53:41;;;;;;;;;;;;;;;;;;4983845;28;19925;-66
2023/04/24 01:56:10;;;;;;;;;;;;;;;;;;4990581;28;19921;-66
2023/04/24 01:58:37;;;;;;;;;;;;;;;;;;4993618;28;20597;-66
2023/04/24 02:01:03;;;;;;;;;;;;;;;;;;4970455;28;19980;-67
2023/04/24 02:03:31;;;;;;;;;;;;;;;;;;4972901;28;20423;-68
2023/04/24 02:05:56;;;;;;;;;;;;;;;;;;4976628;28;19921;-67
2023/04/24 02:08:24;;;;;;;;;;;;;;;;;;4972316;28;20063;-68
2023/04/24 02:10:53;;;;;;;;;;;;;;;;;;4988447;28;19929;-66
2023/04/24 02:13:18;;;;;;;;;;;;;;;;;;4989153;28;19921;-68
2023/04/24 02:15:43;;;;;;;;;;;;;;;;;;4984276;28;20163;-67
2023/04/24 02:18:09;;;;;;;;;;;;;;;;;;4990216;28;19964;-66
2023/04/24 02:20:35;;;;;;;;;;;;;;;;;;4988898;28;19921;-66
2023/04/24 02:23:00;;;;;;;;;;;;;;;;;;4984300;28;19940;-67
2023/04/24 02:25:28;;;;;;;;;;;;;;;;;;4990052;28;20016;-67
2023/04/24 02:27:56;;;;;;;;;;;;;;;;;;4988062;28;20291;-67
2023/04/24 02:30:24;;;;;;;;;;;;;;;;;;4988400;28;19917;-67
2023/04/24 02:32:51;;;;;;;;;;;;;;;;;;4990173;28;19922;-67
2023/04/24 02:35:17;;;;;;;;;;;;;;;;;;4978720;28;19921;-67
2023/04/24 02:37:45;;;;;;;;;;;;;;;;;;4975734;28;20521;-66
2023/04/24 02:40:15;;;;;;;;;;;;;;;;;;4989078;28;19979;-66
2023/04/24 02:42:43;;;;;;;;;;;;;;;;;;4968334;28;19975;-67
2023/04/24 02:45:09;;;;;;;;;;;;;;;;;;4989559;28;19921;-66
2023/04/24 02:47:34;;;;;;;;;;;;;;;;;;4989416;28;19979;-66
2023/04/24 02:49:59;;;;;;;;;;;;;;;;;;4972629;28;19975;-67
2023/04/24 02:52:25;;;;;;;;;;;;;;;;;;4987100;28;19926;-67
2023/04/24 02:54:53;;;;;;;;;;;;;;;;;;4982812;28;20034;-67
2023/04/24 02:57:21;;;;;;;;;;;;;;;;;;4973980;28;20002;-67
2023/04/24 02:59:47;;;;;;;;;;;;;;;;;;4987337;28;19921;-67
2023/04/24 03:02:12;;;;;;;;;;;;;;;;;;4988432;28;20189;-65
2023/04/24 03:04:44;;;;;;;;;;;;;;;;;;4990635;28;20340;-66
2023/04/24 03:07:12;;;;;;;;;;;;;;;;;;4987082;28;19963;-66
2023/04/24 03:09:37;;;;;;;;;;;;;;;;;;4970672;28;19921;-66
2023/04/24 03:12:05;;;;;;;;;;;;;;;;;;4981956;28;19937;-66
2023/04/24 03:14:33;;;;;;;;;;;;;;;;;;4987629;28;20918;-66
2023/04/24 03:16:58;;;;;;;;;;;;;;;;;;4986015;28;19960;-67
2023/04/24 03:19:27;;;;;;;;;;;;;;;;;;4973667;28;20079;-67
2023/04/24 03:21:52;;;;;;;;;;;;;;;;;;4986977;28;20436;-67
2023/04/24 03:24:23;;;;;;;;;;;;;;;;;;4983497;28;19991;-67
2023/04/24 03:26:51;;;;;;;;;;;;;;;;;;4987915;28;19917;-67
2023/04/24 03:29:16;;;;;;;;;;;;;;;;;;4985899;28;19932;-66
2023/04/24 03:31:47;;;;;;;;;;;;;;;;;;4970263;28;19928;-66
2023/04/24 03:34:12;;;;;;;;;;;;;;;;;;4968846;28;20016;-67
2023/04/24 03:36:38;;;;;;;;;;;;;;;;;;4969931;28;20308;-66
2023/04/24 03:39:05;;;;;;;;;;;;;;;;;;4991188;28;19918;-66
2023/04/24 03:41:31;;;;;;;;;;;;;;;;;;4968431;28;19917;-66
2023/04/24 03:43:56;;;;;;;;;;;;;;;;;;4987626;28;19926;-68
2023/04/24 03:46:24;;;;;;;;;;;;;;;;;;4971164;28;19928;-67
2023/04/24 03:48:52;;;;;;;;;;;;;;;;;;4985962;28;19921;-67
2023/04/24 03:51:17;;;;;;;;;;;;;;;;;;4987329;28;19952;-67
2023/04/24 03:53:45;;;;;;;;;;;;;;;;;;5004800;28;19929;-67
2023/04/24 03:56:16;;;;;;;;;;;;;;;;;;5002689;28;20296;-67
2023/04/24 03:58:41;;;;;;;;;;;;;;;;;;5008074;28;19920;-67
2023/04/24 04:01:07;;;;;;;;;;;;;;;;;;4991345;28;19983;-66
2023/04/24 04:03:32;;;;;;;;;;;;;;;;;;4971802;28;20519;-65
2023/04/24 04:06:00;;;;;;;;;;;;;;;;;;4975422;28;19928;-67
2023/04/24 04:08:25;;;;;;;;;;;;;;;;;;4971529;28;19917;-67
2023/04/24 04:10:51;;;;;;;;;;;;;;;;;;4970506;28;20385;-67
2023/04/24 04:13:18;;;;;;;;;;;;;;;;;;4987433;28;20035;-67
2023/04/24 04:15:43;;;;;;;;;;;;;;;;;;4985050;28;20027;-66
2023/04/24 04:18:09;;;;;;;;;;;;;;;;;;4988982;28;20014;-67
2023/04/24 04:20:39;;;;;;;;;;;;;;;;;;4991201;28;20509;-66
2023/04/24 04:23:07;;;;;;;;;;;;;;;;;;4980416;28;19925;-66
2023/04/24 04:25:37;;;;;;;;;;;;;;;;;;5012230;28;19917;-66
2023/04/24 04:28:03;;;;;;;;;;;;;;;;;;4978649;28;20335;-67
2023/04/24 04:30:31;;;;;;;;;;;;;;;;;;4992669;28;20019;-67
2023/04/24 04:32:57;;;;;;;;;;;;;;;;;;4973101;28;19913;-66
2023/04/24 04:35:25;;;;;;;;;;;;;;;;;;4994491;28;19940;-66
2023/04/24 04:37:51;;;;;;;;;;;;;;;;;;5010865;28;19924;-67
2023/04/24 04:40:16;;;;;;;;;;;;;;;;;;4979536;28;21504;-66
2023/04/24 04:42:42;;;;;;;;;;;;;;;;;;5011289;28;19921;-65
2023/04/24 04:45:11;;;;;;;;;;;;;;;;;;5008682;28;21582;-65
2023/04/24 04:47:36;;;;;;;;;;;;;;;;;;4977887;28;19917;-64
2023/04/24 04:50:03;;;;;;;;;;;;;;;;;;4990172;28;20475;-64
2023/04/24 04:52:31;;;;;;;;;;;;;;;;;;4991501;28;19925;-67
2023/04/24 04:54:59;;;;;;;;;;;;;;;;;;4994223;28;19921;-66
2023/04/24 04:57:26;;;;;;;;;;;;;;;;;;4992266;28;20008;-66
2023/04/24 04:59:54;;;;;;;;;;;;;;;;;;5006906;28;19924;-66
2023/04/24 05:02:20;;;;;;;;;;;;;;;;;;4991119;28;19967;-66
2023/04/24 05:04:45;;;;;;;;;;;;;;;;;;4996963;28;19921;-66
2023/04/24 05:07:11;;;;;;;;;;;;;;;;;;4989565;28;20066;-66
2023/04/24 05:09:36;;;;;;;;;;;;;;;;;;4977441;28;19917;-67
2023/04/24 05:12:02;;;;;;;;;;;;;;;;;;5009087;28;20560;-67
2023/04/24 05:14:30;;;;;;;;;;;;;;;;;;4996347;28;20199;-67
2023/04/24 05:17:00;;;;;;;;;;;;;;;;;;4978888;28;19959;-67
2023/04/24 05:19:26;;;;;;;;;;;;;;;;;;4993559;28;19927;-67
2023/04/24 05:21:51;;;;;;;;;;;;;;;;;;5009418;28;19921;-68
2023/04/24 05:24:19;;;;;;;;;;;;;;;;;;5011547;28;19921;-67
2023/04/24 05:26:44;;;;;;;;;;;;;;;;;;4992271;28;20183;-67
2023/04/24 05:29:10;;;;;;;;;;;;;;;;;;4975127;28;20011;-67
2023/04/24 05:31:35;;;;;;;;;;;;;;;;;;4970994;28;19924;-65
2023/04/24 05:34:03;;;;;;;;;;;;;;;;;;4979795;28;19928;-67
2023/04/24 05:36:31;;;;;;;;;;;;;;;;;;4995089;28;19964;-65
2023/04/24 05:38:57;;;;;;;;;;;;;;;;;;4990001;28;20027;-65
2023/04/24 05:41:25;;;;;;;;;;;;;;;;;;4991266;28;19921;-66
2023/04/24 05:43:50;;;;;;;;;;;;;;;;;;5005579;28;20166;-67
2023/04/24 05:46:16;;;;;;;;;;;;;;;;;;4993817;28;19943;-65
2023/04/24 05:48:43;;;;;;;;;;;;;;;;;;5006943;28;19921;-65
2023/04/24 05:51:09;;;;;;;;;;;;;;;;;;4977282;28;19921;-64
2023/04/24 05:53:35;;;;;;;;;;;;;;;;;;4992626;28;20380;-66
2023/04/24 05:56:00;;;;;;;;;;;;;;;;;;5011502;28;20176;-66
2023/04/24 05:58:31;;;;;;;;;;;;;;;;;;4991650;28;20003;-65
2023/04/24 06:01:01;;;;;;;;;;;;;;;;;;4995942;28;19928;-65
2023/04/24 06:03:27;;;;;;;;;;;;;;;;;;4980401;28;19925;-66
2023/04/24 06:05:52;;;;;;;;;;;;;;;;;;5010834;28;19970;-66
2023/04/24 06:08:19;;;;;;;;;;;;;;;;;;5002133;28;19943;-66
2023/04/24 06:10:45;;;;;;;;;;;;;;;;;;4968571;28;19988;-65
2023/04/24 06:13:11;;;;;;;;;;;;;;;;;;4964355;28;19921;-66
2023/04/24 06:15:36;;;;;;;;;;;;;;;;;;5006730;28;19917;-66
2023/04/24 06:18:04;;;;;;;;;;;;;;;;;;4986653;28;21508;-66
2023/04/24 06:20:29;;;;;;;;;;;;;;;;;;4985634;28;19925;-67
2023/04/24 06:22:57;;;;;;;;;;;;;;;;;;4990193;28;19925;-68
2023/04/24 06:25:22;;;;;;;;;;;;;;;;;;4990014;28;21553;-68
2023/04/24 06:27:50;;;;;;;;;;;;;;;;;;4968019;28;20058;-68
2023/04/24 06:30:18;;;;;;;;;;;;;;;;;;4991601;28;19921;-68
2023/04/24 06:32:46;;;;;;;;;;;;;;;;;;4986887;28;20404;-70
2023/04/24 06:35:12;;;;;;;;;;;;;;;;;;4991179;28;19921;-69
2023/04/24 06:37:40;;;;;;;;;;;;;;;;;;5005341;28;20007;-70
2023/04/24 06:40:08;;;;;;;;;;;;;;;;;;4990012;28;20305;-69
2023/04/24 06:42:34;;;;;;;;;;;;;;;;;;4970246;28;20086;-70
2023/04/24 06:45:00;;;;;;;;;;;;;;;;;;4993422;28;20660;-70
2023/04/24 06:47:27;;;;;;;;;;;;;;;;;;4976164;28;19917;-70
2023/04/24 06:49:53;;;;;;;;;;;;;;;;;;4989232;28;20365;-68
2023/04/24 06:52:18;;;;;;;;;;;;;;;;;;5006729;28;19965;-68
2023/04/24 06:54:43;;;;;;;;;;;;;;;;;;5003865;28;19924;-67
2023/04/24 06:57:11;;;;;;;;;;;;;;;;;;5004483;28;19928;-67
2023/04/24 06:59:39;;;;;;;;;;;;;;;;;;4991546;28;20055;-69
2023/04/24 07:02:04;;;;;;;;;;;;;;;;;;4977043;28;20609;-72
2023/04/24 07:04:29;;;;;;;;;;;;;;;;;;4988334;28;20243;-70
2023/04/24 07:06:55;;;;;;;;;;;;;;;;;;4972750;28;20035;-69
2023/04/24 07:09:23;;;;;;;;;;;;;;;;;;4975858;28;19982;-71
2023/04/24 07:11:49;;;;;;;;;;;;;;;;;;5007049;28;20359;-68
2023/04/24 07:14:19;;;;;;;;;;;;;;;;;;4971296;28;19951;-69
2023/04/24 07:16:47;;;;;;;;;;;;;;;;;;5006609;28;19990;-68
2023/04/24 07:19:12;;;;;;;;;;;;;;;;;;4972238;28;19994;-68
2023/04/24 07:21:40;;;;;;;;;;;;;;;;;;4988730;28;19963;-69
2023/04/24 07:24:09;;;;;;;;;;;;;;;;;;4974028;28;20664;-72
2023/04/24 07:26:34;;;;;;;;;;;;;;;;;;4988712;28;21074;-71
2023/04/24 07:29:00;;;;;;;;;;;;;;;;;;4991539;28;19928;-71
2023/04/24 07:31:26;;;;;;;;;;;;;;;;;;5004299;28;19921;-70
2023/04/24 07:33:54;;;;;;;;;;;;;;;;;;5003185;28;19974;-70
2023/04/24 07:36:19;;;;;;;;;;;;;;;;;;4971579;28;19929;-72
2023/04/24 07:38:44;;;;;;;;;;;;;;;;;;4972308;28;19921;-70
2023/04/24 07:41:10;;;;;;;;;;;;;;;;;;5005754;28;19916;-68
2023/04/24 07:43:38;;;;;;;;;;;;;;;;;;4973067;28;19925;-71
2023/04/24 07:46:03;;;;;;;;;;;;;;;;;;5006184;28;20000;-70
2023/04/24 07:48:29;;;;;;;;;;;;;;;;;;4973966;28;19960;-73
2023/04/24 07:50:55;;;;;;;;;;;;;;;;;;4994325;28;19917;-68
2023/04/24 07:53:20;;;;;;;;;;;;;;;;;;5005770;28;19928;-71
2023/04/24 07:55:46;;;;;;;;;;;;;;;;;;4977418;28;20360;-70
2023/04/24 07:58:11;;;;;;;;;;;;;;;;;;4993021;28;19928;-69
2023/04/24 08:00:39;;;;;;;;;;;;;;;;;;4999113;28;19979;-72
2023/04/24 08:03:08;;;;;;;;;;;;;;;;;;4993593;28;19963;-69
2023/04/24 08:05:33;;;;;;;;;;;;;;;;;;5011276;28;20035;-68
2023/04/24 08:07:58;;;;;;;;;;;;;;;;;;4995073;28;19917;-71
2023/04/24 08:10:24;;;;;;;;;;;;;;;;;;4993343;28;20149;-72
2023/04/24 08:12:50;;;;;;;;;;;;;;;;;;4974989;28;20063;-72
2023/04/24 08:15:15;;;;;;;;;;;;;;;;;;5011246;28;20343;-70
2023/04/24 08:17:43;;;;;;;;;;;;;;;;;;4991299;28;19957;-70
2023/04/24 08:20:13;;;;;;;;;;;;;;;;;;5010676;28;19924;-70
2023/04/24 08:22:38;;;;;;;;;;;;;;;;;;5011381;28;19920;-74
2023/04/24 08:25:04;;;;;;;;;;;;;;;;;;5007350;28;20000;-70
2023/04/24 08:27:29;;;;;;;;;;;;;;;;;;5010852;28;19920;-70
2023/04/24 08:29:54;;;;;;;;;;;;;;;;;;4989227;28;20437;-70
2023/04/24 08:32:27;;;;;;;;;;;;;;;;;;4977687;28;19928;-71
2023/04/24 08:34:53;;;;;;;;;;;;;;;;;;4990786;28;19998;-70
2023/04/24 08:37:18;;;;;;;;;;;;;;;;;;4975210;28;20430;-76
2023/04/24 08:39:44;;;;;;;;;;;;;;;;;;5009853;28;19952;-72
2023/04/24 08:42:09;;;;;;;;;;;;;;;;;;5005241;28;19932;-70
2023/04/24 08:44:35;;;;;;;;;;;;;;;;;;4978524;28;19932;-72
2023/04/24 08:47:03;;;;;;;;;;;;;;;;;;4976981;28;20072;-72
2023/04/24 08:49:28;;;;;;;;;;;;;;;;;;5010799;28;19921;-73
2023/04/24 08:51:54;;;;;;;;;;;;;;;;;;4975526;28;19923;-77
2023/04/24 08:54:19;;;;;;;;;;;;;;;;;;4967953;28;19929;-72
2023/04/24 08:56:45;;;;;;;;;;;;;;;;;;4988678;28;19980;-70
2023/04/24 08:59:10;;;;;;;;;;;;;;;;;;4991576;28;20384;-75
2023/04/24 09:01:36;;;;;;;;;;;;;;;;;;4991373;28;19956;-73
2023/04/24 09:04:01;;;;;;;;;;;;;;;;;;4992755;28;20699;-77
2023/04/24 09:06:27;;;;;;;;;;;;;;;;;;4990971;28;19926;-77
2023/04/24 09:08:53;;;;;;;;;;;;;;;;;;4994144;28;20419;-78
2023/04/24 09:11:18;;;;;;;;;;;;;;;;;;4975575;28;19948;-78
2023/04/24 09:13:43;;;;;;;;;;;;;;;;;;5007052;28;20385;-78
2023/04/24 09:16:09;;;;;;;;;;;;;;;;;;4988548;28;19928;-76
2023/04/24 09:18:35;;;;;;;;;;;;;;;;;;4973211;28;20332;-75
2023/04/24 09:21:00;;;;;;;;;;;;;;;;;;4989605;28;19929;-76
2023/04/24 09:23:25;;;;;;;;;;;;;;;;;;4990575;28;20344;-73
2023/04/24 09:25:54;;;;;;;;;;;;;;;;;;4990414;28;20479;-74
2023/04/24 09:28:19;;;;;;;;;;;;;;;;;;4988762;28;19976;-73
2023/04/24 09:30:45;;;;;;;;;;;;;;;;;;4991186;28;19921;-72
2023/04/24 09:33:13;;;;;;;;;;;;;;;;;;5006874;28;21093;-73
2023/04/24 09:35:38;;;;;;;;;;;;;;;;;;4989965;28;20024;-72
2023/04/24 09:38:06;;;;;;;;;;;;;;;;;;4987646;28;19929;-72
2023/04/24 09:40:33;;;;;;;;;;;;;;;;;;4987489;28;19921;-75
2023/04/24 09:43:01;;;;;;;;;;;;;;;;;;4988380;28;20327;-71
2023/04/24 09:45:26;;;;;;;;;;;;;;;;;;4974671;28;20385;-71
2023/04/24 09:47:54;;;;;;;;;;;;;;;;;;4972008;28;19917;-73
2023/04/24 09:50:23;;;;;;;;;;;;;;;;;;4988070;28;19971;-71
2023/04/24 09:52:48;;;;;;;;;;;;;;;;;;4972732;28;19925;-73
2023/04/24 09:55:14;;;;;;;;;;;;;;;;;;4991500;28;19984;-72
2023/04/24 09:57:43;;;;;;;;;;;;;;;;;;4988614;28;19922;-75
2023/04/24 10:00:12;;;;;;;;;;;;;;;;;;4989692;28;20300;-74
2023/04/24 10:02:39;;;;;;;;;;;;;;;;;;4986908;28;19949;-71
2023/04/24 10:05:10;;;;;;;;;;;;;;;;;;4989393;28;20103;-70
2023/04/24 10:07:35;;;;;;;;;;;;;;;;;;4989609;28;19925;-71
2023/04/24 10:10:04;;;;;;;;;;;;;;;;;;4990665;28;20400;-71
2023/04/24 10:12:29;;;;;;;;;;;;;;;;;;4985544;28;19922;-74
2023/04/24 10:14:57;;;;;;;;;;;;;;;;;;4974129;28;19918;-71
2023/04/24 10:17:23;;;;;;;;;;;;;;;;;;4971404;28;20669;-69
2023/04/24 10:19:48;;;;;;;;;;;;;;;;;;4972241;28;20639;-69
2023/04/24 10:22:15;;;;;;;;;;;;;;;;;;4989151;28;19921;-69
2023/04/24 10:24:47;;;;;;;;;;;;;;;;;;4970906;28;19933;-68
2023/04/24 10:27:12;;;;;;;;;;;;;;;;;;4972212;28;19929;-65
2023/04/24 10:29:40;;;;;;;;;;;;;;;;;;4982869;28;20359;-69
2023/04/24 10:32:05;;;;;;;;;;;;;;;;;;4988898;28;20039;-68
2023/04/24 10:34:30;;;;;;;;;;;;;;;;;;4987981;28;19979;-67
2023/04/24 10:36:56;;;;;;;;;;;;;;;;;;4986004;28;20198;-65
2023/04/24 10:39:22;;;;;;;;;;;;;;;;;;4988768;28;19929;-68
2023/04/24 10:41:47;;;;;;;;;;;;;;;;;;4984077;28;19932;-66
2023/04/24 10:44:13;;;;;;;;;;;;;;;;;;4985046;28;19921;-68
2023/04/24 10:46:38;;;;;;;;;;;;;;;;;;4988397;28;19929;-71
2023/04/24 10:49:07;;;;;;;;;;;;;;;;;;4970107;28;20429;-65
2023/04/24 10:51:35;;;;;;;;;;;;;;;;;;4986880;28;19948;-69
2023/04/24 10:54:01;;;;;;;;;;;;;;;;;;4987797;28;19937;-68
2023/04/24 10:56:29;;;;;;;;;;;;;;;;;;4989568;28;19917;-68
2023/04/24 10:58:54;;;;;;;;;;;;;;;;;;4986465;28;20447;-67
2023/04/24 11:01:20;;;;;;;;;;;;;;;;;;4988791;28;19948;-71
2023/04/24 11:03:48;;;;;;;;;;;;;;;;;;4983692;28;19921;-67
2023/04/24 11:06:13;;;;;;;;;;;;;;;;;;4989280;28;20336;-67
2023/04/24 11:08:39;;;;;;;;;;;;;;;;;;4986298;28;19917;-70
2023/04/24 11:11:04;;;;;;;;;;;;;;;;;;4985967;28;19926;-70
2023/04/24 11:13:29;;;;;;;;;;;;;;;;;;4988381;28;20419;-66
2023/04/24 11:15:57;;;;;;;;;;;;;;;;;;4988612;28;20377;-65
2023/04/24 11:18:23;;;;;;;;;;;;;;;;;;4988686;28;19937;-68
2023/04/24 11:20:48;;;;;;;;;;;;;;;;;;4989891;28;19925;-65
2023/04/24 11:23:14;;;;;;;;;;;;;;;;;;4985804;28;20595;-69
2023/04/24 11:25:42;;;;;;;;;;;;;;;;;;4970734;28;20571;-64
2023/04/24 11:28:07;;;;;;;;;;;;;;;;;;4985804;28;19925;-68
2023/04/24 11:30:36;;;;;;;;;;;;;;;;;;4970756;28;19957;-66
2023/04/24 11:33:04;;;;;;;;;;;;;;;;;;4986910;28;20336;-67
2023/04/24 11:35:34;;;;;;;;;;;;;;;;;;4987174;28;21911;-65
2023/04/24 11:38:02;;;;;;;;;;;;;;;;;;4971566;28;19921;-63
2023/04/24 11:40:30;;;;;;;;;;;;;;;;;;4985740;28;19924;-64
2023/04/24 11:42:55;;;;;;;;;;;;;;;;;;4982283;28;19933;-68
2023/04/24 11:45:21;;;;;;;;;;;;;;;;;;4985639;28;19928;-68
2023/04/24 11:47:49;;;;;;;;;;;;;;;;;;4984198;28;19932;-68
2023/04/24 11:50:17;;;;;;;;;;;;;;;;;;4975968;28;20634;-65
2023/04/24 11:52:46;;;;;;;;;;;;;;;;;;4973158;28;19983;-67
2023/04/24 11:55:11;;;;;;;;;;;;;;;;;;4988349;28;20557;-64
2023/04/24 11:57:36;;;;;;;;;;;;;;;;;;4973178;28;20388;-64
2023/04/24 12:00:05;;;;;;;;;;;;;;;;;;5005533;28;20054;-64
2023/04/24 12:02:33;;;;;;;;;;;;;;;;;;4989377;28;20060;-63
2023/04/24 12:04:58;;;;;;;;;;;;;;;;;;4991198;28;20398;-63
2023/04/24 12:07:24;;;;;;;;;;;;;;;;;;5007626;28;19998;-68
2023/04/24 12:09:52;;;;;;;;;;;;;;;;;;5005800;28;19964;-65
2023/04/24 12:12:19;;;;;;;;;;;;;;;;;;5002862;28;20615;-65
2023/04/24 12:14:50;;;;;;;;;;;;;;;;;;5007270;28;19971;-64
2023/04/24 12:17:15;;;;;;;;;;;;;;;;;;4968849;28;19921;-68
2023/04/24 12:19:40;;;;;;;;;;;;;;;;;;4984978;28;20045;-65
2023/04/24 12:22:08;;;;;;;;;;;;;;;;;;5004824;28;19925;-68
2023/04/24 12:24:39;;;;;;;;;;;;;;;;;;4964293;28;19970;-68
2023/04/24 12:27:07;;;;;;;;;;;;;;;;;;4983135;28;20319;-65
2023/04/24 12:29:33;;;;;;;;;;;;;;;;;;5005351;28;20474;-65
2023/04/24 12:32:00;;;;;;;;;;;;;;;;;;5003267;28;20193;-68
2023/04/24 12:34:26;;;;;;;;;;;;;;;;;;4973932;28;19921;-64
2023/04/24 12:36:51;;;;;;;;;;;;;;;;;;4990525;28;19917;-64
2023/04/24 12:39:17;;;;;;;;;;;;;;;;;;4988512;28;19922;-64
2023/04/24 12:41:45;;;;;;;;;;;;;;;;;;4975710;28;19940;-63
2023/04/24 12:44:15;;;;;;;;;;;;;;;;;;4994287;28;19924;-66
2023/04/24 12:46:40;;;;;;;;;;;;;;;;;;4973568;28;20389;-64
2023/04/24 12:49:05;;;;;;;;;;;;;;;;;;4992920;28;19983;-64
2023/04/24 12:51:31;;;;;;;;;;;;;;;;;;4992133;28;19944;-63
2023/04/24 12:53:58;;;;;;;;;;;;;;;;;;4992747;28;20361;-64
2023/04/24 12:56:27;;;;;;;;;;;;;;;;;;4991547;28;20003;-63
2023/04/24 12:58:55;;;;;;;;;;;;;;;;;;5010107;28;19924;-70
2023/04/24 13:01:20;;;;;;;;;;;;;;;;;;4974754;28;20414;-63
2023/04/24 13:03:46;;;;;;;;;;;;;;;;;;4974777;28;19928;-66
2023/04/24 13:06:15;;;;;;;;;;;;;;;;;;5006822;28;19930;-65
2023/04/24 13:08:40;;;;;;;;;;;;;;;;;;4988309;28;19969;-66
2023/04/24 13:11:07;;;;;;;;;;;;;;;;;;4989121;28;19925;-66
2023/04/24 13:13:32;;;;;;;;;;;;;;;;;;4989058;28;19921;-66
2023/04/24 13:16:00;;;;;;;;;;;;;;;;;;4986869;28;19917;-66
2023/04/24 13:18:25;;;;;;;;;;;;;;;;;;4990249;28;21274;-67
2023/04/24 13:20:51;;;;;;;;;;;;;;;;;;4992074;28;19921;-67
2023/04/24 13:23:17;;;;;;;;;;;;;;;;;;4993638;28;20050;-67
2023/04/24 13:25:42;;;;;;;;;;;;;;;;;;4973079;28;20673;-67
2023/04/24 13:28:07;;;;;;;;;;;;;;;;;;4987728;28;19948;-67
2023/04/24 13:30:35;;;;;;;;;;;;;;;;;;4988440;28;20370;-66
2023/04/24 13:33:01;;;;;;;;;;;;;;;;;;5005316;28;20753;-66
2023/04/24 13:35:29;;;;;;;;;;;;;;;;;;4977488;28;20303;-67
2023/04/24 13:37:54;;;;;;;;;;;;;;;;;;4969663;28;19921;-68
2023/04/24 13:40:22;;;;;;;;;;;;;;;;;;4991733;28;19921;-67
2023/04/24 13:42:47;;;;;;;;;;;;;;;;;;5003791;28;19944;-68
2023/04/24 13:45:13;;;;;;;;;;;;;;;;;;4990391;28;20381;-67
2023/04/24 13:47:40;;;;;;;;;;;;;;;;;;5008903;28;20011;-66
2023/04/24 13:50:08;;;;;;;;;;;;;;;;;;4974453;28;20026;-63
2023/04/24 13:52:33;;;;;;;;;;;;;;;;;;4987553;28;19967;-65
2023/04/24 13:54:59;;;;;;;;;;;;;;;;;;5007955;28;20430;-62
2023/04/24 13:57:24;;;;;;;;;;;;;;;;;;4978000;28;19929;-65
2023/04/24 13:59:50;;;;;;;;;;;;;;;;;;4970078;28;19921;-65
2023/04/24 14:02:15;;;;;;;;;;;;;;;;;;4987729;28;20373;-67
2023/04/24 14:04:40;;;;;;;;;;;;;;;;;;4989137;28;19925;-66
2023/04/24 14:07:08;;;;;;;;;;;;;;;;;;5007309;28;20695;-64
2023/04/24 14:09:34;;;;;;;;;;;;;;;;;;5008861;28;19980;-63
2023/04/24 14:12:01;;;;;;;;;;;;;;;;;;5007256;28;19929;-67
2023/04/24 14:14:32;;;;;;;;;;;;;;;;;;4971795;28;20566;-65
2023/04/24 14:16:59;;;;;;;;;;;;;;;;;;4982859;28;19927;-65
2023/04/24 14:19:25;;;;;;;;;;;;;;;;;;4970171;28;19921;-63
2023/04/24 14:21:50;;;;;;;;;;;;;;;;;;5000244;28;19928;-65
2023/04/24 14:24:15;;;;;;;;;;;;;;;;;;4990596;28;19921;-65
2023/04/24 14:26:40;;;;;;;;;;;;;;;;;;5008434;28;20804;-65
2023/04/24 14:29:08;;;;;;;;;;;;;;;;;;5009564;28;20006;-65
2023/04/24 14:31:33;;;;;;;;;;;;;;;;;;4992370;28;19917;-63
2023/04/24 14:33:59;;;;;;;;;;;;;;;;;;4975892;28;19976;-66
2023/04/24 14:36:24;;;;;;;;;;;;;;;;;;4985843;28;19920;-62
2023/04/24 14:38:53;;;;;;;;;;;;;;;;;;4983490;28;20218;-66
2023/04/24 14:41:18;;;;;;;;;;;;;;;;;;4975937;28;20544;-66
2023/04/24 14:43:44;;;;;;;;;;;;;;;;;;5004417;28;19921;-63
2023/04/24 14:46:11;;;;;;;;;;;;;;;;;;4991828;28;20742;-64
2023/04/24 14:48:37;;;;;;;;;;;;;;;;;;4977172;28;19999;-66
2023/04/24 14:51:02;;;;;;;;;;;;;;;;;;5009130;28;19917;-62
2023/04/24 14:53:28;;;;;;;;;;;;;;;;;;4986360;28;19929;-65
2023/04/24 14:55:53;;;;;;;;;;;;;;;;;;4971907;28;20553;-67
2023/04/24 14:58:18;;;;;;;;;;;;;;;;;;5003057;28;20462;-64
2023/04/24 15:00:44;;;;;;;;;;;;;;;;;;4985835;28;19928;-66
2023/04/24 15:03:12;;;;;;;;;;;;;;;;;;4968887;28;19962;-65
2023/04/24 15:05:37;;;;;;;;;;;;;;;;;;4986947;28;19925;-65
2023/04/24 15:08:02;;;;;;;;;;;;;;;;;;5004452;28;19917;-63
2023/04/24 15:10:29;;;;;;;;;;;;;;;;;;4988572;28;20452;-66
2023/04/24 15:12:54;;;;;;;;;;;;;;;;;;4990206;28;20345;-63
2023/04/24 15:15:21;;;;;;;;;;;;;;;;;;5007217;28;19921;-67
2023/04/24 15:17:47;;;;;;;;;;;;;;;;;;4974535;28;20035;-65
2023/04/24 15:20:15;;;;;;;;;;;;;;;;;;4991148;28;19917;-64
2023/04/24 15:22:43;;;;;;;;;;;;;;;;;;4988208;28;19928;-63
2023/04/24 15:25:10;;;;;;;;;;;;;;;;;;4986882;28;20553;-63
2023/04/24 15:27:38;;;;;;;;;;;;;;;;;;4989709;28;20315;-66
2023/04/24 15:30:07;;;;;;;;;;;;;;;;;;4966806;28;19924;-63
2023/04/24 15:32:32;;;;;;;;;;;;;;;;;;4971003;28;20380;-63
2023/04/24 15:35:00;;;;;;;;;;;;;;;;;;4993383;28;20460;-65
2023/04/24 15:37:28;;;;;;;;;;;;;;;;;;4970890;28;20021;-66
2023/04/24 15:39:56;;;;;;;;;;;;;;;;;;4969669;28;20613;-65
2023/04/24 15:42:22;;;;;;;;;;;;;;;;;;4990463;28;19925;-66
2023/04/24 15:44:47;;;;;;;;;;;;;;;;;;4972574;28;19972;-64
2023/04/24 15:47:15;;;;;;;;;;;;;;;;;;4989801;28;19917;-68
2023/04/24 15:49:40;;;;;;;;;;;;;;;;;;4985046;28;19983;-68
2023/04/24 15:52:06;;;;;;;;;;;;;;;;;;4989872;28;19921;-65
2023/04/24 15:54:31;;;;;;;;;;;;;;;;;;4987881;28;19925;-68
2023/04/24 15:57:00;;;;;;;;;;;;;;;;;;4989597;28;20167;-72
2023/04/24 15:59:25;;;;;;;;;;;;;;;;;;4972550;28;20060;-68
2023/04/24 16:01:54;;;;;;;;;;;;;;;;;;4989364;28;19920;-74
2023/04/24 16:04:22;;;;;;;;;;;;;;;;;;4971786;28;20934;-65
2023/04/24 16:06:47;;;;;;;;;;;;;;;;;;4985038;28;20601;-72
2023/04/24 16:09:14;;;;;;;;;;;;;;;;;;4986988;28;19929;-69
2023/04/24 16:11:39;;;;;;;;;;;;;;;;;;4976713;28;21410;-69
2023/04/24 16:14:04;;;;;;;;;;;;;;;;;;5004445;28;19923;-71
2023/04/24 16:16:30;;;;;;;;;;;;;;;;;;4997620;28;20304;-67
2023/04/24 16:18:55;;;;;;;;;;;;;;;;;;4978803;28;20296;-68
2023/04/24 16:21:23;;;;;;;;;;;;;;;;;;5006477;28;20538;-69
2023/04/24 16:23:49;;;;;;;;;;;;;;;;;;4993895;28;19932;-76
2023/04/24 16:26:16;;;;;;;;;;;;;;;;;;5011002;28;19927;-71
2023/04/24 16:28:44;;;;;;;;;;;;;;;;;;4993411;28;19917;-71
2023/04/24 16:31:09;;;;;;;;;;;;;;;;;;4977025;28;19940;-72
2023/04/24 16:33:35;;;;;;;;;;;;;;;;;;5005056;28;19921;-71
2023/04/24 16:36:00;;;;;;;;;;;;;;;;;;4985986;28;19921;-73
2023/04/24 16:38:25;;;;;;;;;;;;;;;;;;5004585;28;19921;-70
2023/04/24 16:40:54;;;;;;;;;;;;;;;;;;4988481;28;19924;-69